createdAt,value
2018-11-14T00:00:26.357Z,7.43
2018-11-14T00:02:55.111Z,6.97
2018-11-14T00:05:23.377Z,7.37
2018-11-14T00:07:51.563Z,6.67
2018-11-14T00:10:20.358Z,6.13
2018-11-14T00:12:48.153Z,6.90
2018-11-14T00:15:17.632Z,7.27
2018-11-14T00:17:46.625Z,7.47
2018-11-14T00:20:15.086Z,6.63
2018-11-14T00:22:44.353Z,7.33
2018-11-14T00:25:12.465Z,7.03
2018-11-14T00:27:40.619Z,6.47
2018-11-14T00:30:14.779Z,6.83
2018-11-14T00:32:43.232Z,7.13
2018-11-14T00:35:11.977Z,6.53
2018-11-14T00:37:40.547Z,6.70
2018-11-14T00:40:10.199Z,6.70
2018-11-14T00:42:38.564Z,7.40
2018-11-14T00:45:08.590Z,6.70
2018-11-14T00:47:36.681Z,7.13
2018-11-14T00:50:05.439Z,6.90
2018-11-14T00:52:33.586Z,6.77
2018-11-14T00:55:01.709Z,7.30
2018-11-14T00:57:29.837Z,7.30
2018-11-14T00:59:58.093Z,7.33
2018-11-14T01:02:26.233Z,7.43
2018-11-14T01:04:54.545Z,6.97
2018-11-14T01:07:22.681Z,6.90
2018-11-14T01:09:50.805Z,7.30
2018-11-14T01:12:18.939Z,7.70
2018-11-14T01:14:47.057Z,6.80
2018-11-14T01:17:15.240Z,7.37
2018-11-14T01:19:43.369Z,7.47
2018-11-14T01:22:11.475Z,7.70
2018-11-14T01:24:39.676Z,8.20
2018-11-14T01:27:07.988Z,8.67
2018-11-14T01:29:36.109Z,7.97
2018-11-14T01:32:04.355Z,9.90
2018-11-14T01:34:32.488Z,8.40
2018-11-14T01:37:00.768Z,8.30
2018-11-14T01:39:28.982Z,8.47
2018-11-14T01:41:57.143Z,8.07
2018-11-14T01:44:25.246Z,8.93
2018-11-14T01:46:53.364Z,8.43
2018-11-14T01:49:21.596Z,9.17
2018-11-14T01:51:49.910Z,8.77
2018-11-14T01:54:18.058Z,9.90
2018-11-14T01:56:46.238Z,8.83
2018-11-14T01:59:14.538Z,9.63
2018-11-14T02:01:42.645Z,9.20
2018-11-14T02:04:10.789Z,9.17
2018-11-14T02:06:39.074Z,9.40
2018-11-14T02:09:08.428Z,8.77
2018-11-14T02:11:36.616Z,9.10
2018-11-14T02:14:05.070Z,9.17
2018-11-14T02:16:33.201Z,10.20
2018-11-14T02:19:01.326Z,9.90
2018-11-14T02:21:29.546Z,9.73
2018-11-14T02:23:57.705Z,9.57
2018-11-14T02:26:25.830Z,9.53
2018-11-14T02:28:54.036Z,8.90
2018-11-14T02:31:22.379Z,9.93
2018-11-14T02:33:50.560Z,9.17
2018-11-14T02:36:18.874Z,9.07
2018-11-14T02:38:47.051Z,9.50
2018-11-14T02:41:15.212Z,9.87
2018-11-14T02:43:43.318Z,10.30
2018-11-14T02:46:11.579Z,10.30
2018-11-14T02:48:39.742Z,10.03
2018-11-14T02:51:19.150Z,9.47
2018-11-14T02:53:47.494Z,9.57
2018-11-14T02:56:15.689Z,10.00
2018-11-14T02:58:43.782Z,10.77
2018-11-14T03:01:11.892Z,9.73
2018-11-14T03:03:40.005Z,9.97
2018-11-14T03:06:08.317Z,10.20
2018-11-14T03:08:36.552Z,10.47
2018-11-14T03:11:04.848Z,10.10
2018-11-14T03:13:32.946Z,11.17
2018-11-14T03:16:01.076Z,10.60
2018-11-14T03:18:29.183Z,10.33
2018-11-14T03:20:57.306Z,9.97
2018-11-14T03:23:25.453Z,11.07
2018-11-14T03:25:53.599Z,10.70
2018-11-14T03:28:21.682Z,10.87
2018-11-14T03:30:49.808Z,10.40
2018-11-14T03:33:17.915Z,10.87
2018-11-14T03:35:51.540Z,10.27
2018-11-14T03:38:19.722Z,10.67
2018-11-14T03:40:47.902Z,11.10
2018-11-14T03:43:16.020Z,11.50
2018-11-14T03:45:44.216Z,10.93
2018-11-14T03:48:12.392Z,11.17
2018-11-14T03:50:40.507Z,10.33
2018-11-14T03:53:08.595Z,10.07
2018-11-14T03:55:36.756Z,11.53
2018-11-14T03:58:05.237Z,10.50
2018-11-14T04:00:33.277Z,11.10
2018-11-14T04:03:01.430Z,11.17
2018-11-14T04:05:29.662Z,11.13
2018-11-14T04:07:57.729Z,10.70
2018-11-14T04:10:25.911Z,10.70
2018-11-14T04:12:54.202Z,12.17
2018-11-14T04:15:22.344Z,11.63
2018-11-14T04:17:50.488Z,11.90
2018-11-14T04:20:18.618Z,11.83
2018-11-14T04:22:47.252Z,11.80
2018-11-14T04:25:17.663Z,12.97
2018-11-14T04:27:46.570Z,12.03
2018-11-14T04:30:15.773Z,11.43
2018-11-14T04:32:44.386Z,12.30
2018-11-14T04:35:13.596Z,12.13
2018-11-14T04:37:41.786Z,13.00
2018-11-14T04:40:12.192Z,13.17
2018-11-14T04:42:40.445Z,12.27
2018-11-14T04:45:10.572Z,13.07
2018-11-14T04:47:38.749Z,13.83
2018-11-14T04:50:09.253Z,12.43
2018-11-14T04:52:37.703Z,14.03
2018-11-14T04:55:07.237Z,12.33
2018-11-14T04:57:35.340Z,12.53
2018-11-14T05:00:03.505Z,13.30
2018-11-14T05:02:31.805Z,12.23
2018-11-14T05:04:59.839Z,12.90
2018-11-14T05:07:28.048Z,12.50
2018-11-14T05:09:56.321Z,11.83
2018-11-14T05:12:24.455Z,12.53
2018-11-14T05:14:52.596Z,12.10
2018-11-14T05:17:20.712Z,12.90
2018-11-14T05:19:48.872Z,12.33
2018-11-14T05:22:17.010Z,12.00
2018-11-14T05:24:45.268Z,12.40
2018-11-14T05:27:13.384Z,12.77
2018-11-14T05:29:41.514Z,13.37
2018-11-14T05:32:09.626Z,13.20
2018-11-14T05:34:37.828Z,12.83
2018-11-14T05:37:05.992Z,12.33
2018-11-14T05:39:34.399Z,12.20
2018-11-14T05:42:02.466Z,12.47
2018-11-14T05:44:30.605Z,12.67
2018-11-14T05:46:58.740Z,12.20
2018-11-14T05:49:26.924Z,13.87
2018-11-14T05:51:55.165Z,13.27
2018-11-14T05:54:23.312Z,12.90
2018-11-14T05:56:51.445Z,13.80
2018-11-14T05:59:19.602Z,12.83
2018-11-14T06:01:47.741Z,13.63
2018-11-14T06:04:15.960Z,13.90
2018-11-14T06:06:44.119Z,13.20
2018-11-14T06:09:13.814Z,14.47
2018-11-14T06:11:42.064Z,12.93
2018-11-14T06:14:10.214Z,14.10
2018-11-14T06:16:38.391Z,14.20
2018-11-14T06:19:06.566Z,15.07
2018-11-14T06:21:34.884Z,14.67
2018-11-14T06:24:03.060Z,14.63
2018-11-14T06:26:31.260Z,14.53
2018-11-14T06:28:59.387Z,15.13
2018-11-14T06:31:27.556Z,16.43
2018-11-14T06:33:55.738Z,15.73
2018-11-14T06:36:23.906Z,17.03
2018-11-14T06:38:52.094Z,15.27
2018-11-14T06:41:20.258Z,16.13
2018-11-14T06:43:48.426Z,15.50
2018-11-14T06:46:16.634Z,14.87
2018-11-14T06:48:44.902Z,16.03
2018-11-14T06:51:13.120Z,15.93
2018-11-14T06:53:41.262Z,14.93
2018-11-14T06:56:09.377Z,14.80
2018-11-14T06:58:37.510Z,15.17
2018-11-14T07:01:05.768Z,13.43
2018-11-14T07:03:33.950Z,14.90
2018-11-14T07:06:02.296Z,14.93
2018-11-14T07:08:30.261Z,15.77
2018-11-14T07:10:58.512Z,15.60
2018-11-14T07:13:26.590Z,16.03
2018-11-14T07:15:54.743Z,15.03
2018-11-14T07:18:22.869Z,15.63
2018-11-14T07:20:51.027Z,14.13
2018-11-14T07:23:19.214Z,15.53
2018-11-14T07:25:47.982Z,14.80
2018-11-14T07:28:16.177Z,14.80
2018-11-14T07:30:44.399Z,16.53
2018-11-14T07:33:12.741Z,15.40
2018-11-14T07:35:43.857Z,16.17
2018-11-14T07:38:21.893Z,16.23
2018-11-14T07:40:50.071Z,18.40
2018-11-14T07:43:18.301Z,18.00
2018-11-14T07:45:46.456Z,20.03
2018-11-14T07:48:14.573Z,18.10
2018-11-14T07:50:42.689Z,25.60
2018-11-14T07:53:10.952Z,17.20
2018-11-14T07:55:39.156Z,16.53
2018-11-14T07:58:07.274Z,16.83
2018-11-14T08:00:35.400Z,15.10
2018-11-14T08:03:03.599Z,14.23
2018-11-14T08:05:31.766Z,14.47
2018-11-14T08:07:59.965Z,15.97
2018-11-14T08:10:28.033Z,14.43
2018-11-14T08:13:02.889Z,15.27
2018-11-14T08:15:31.057Z,14.60
2018-11-14T08:17:59.204Z,15.07
2018-11-14T08:20:27.320Z,15.70
2018-11-14T08:22:55.766Z,15.47
2018-11-14T08:25:24.376Z,15.23
2018-11-14T08:27:52.514Z,14.93
2018-11-14T08:30:20.671Z,15.40
2018-11-14T08:32:48.904Z,15.93
2018-11-14T08:35:17.067Z,14.63
2018-11-14T08:37:45.258Z,15.10
2018-11-14T08:40:13.408Z,15.10
2018-11-14T08:42:42.066Z,15.33
2018-11-14T08:45:11.372Z,15.17
2018-11-14T08:47:40.261Z,16.03
2018-11-14T08:50:14.203Z,15.57
2018-11-14T08:52:49.250Z,15.27
2018-11-14T08:55:17.477Z,14.07
2018-11-14T08:57:46.559Z,15.00
2018-11-14T09:00:18.084Z,13.80
2018-11-14T09:02:46.713Z,14.97
2018-11-14T09:05:14.877Z,13.10
2018-11-14T09:07:43.070Z,13.10
2018-11-14T09:10:14.249Z,13.93
2018-11-14T09:12:42.731Z,12.80
2018-11-14T09:15:13.041Z,14.00
2018-11-14T09:17:41.140Z,14.60
2018-11-14T09:20:12.692Z,13.13
2018-11-14T09:22:41.017Z,11.30
2018-11-14T09:25:12.991Z,12.13
2018-11-14T09:27:41.840Z,12.10
2018-11-14T09:30:12.260Z,13.20
2018-11-14T09:32:40.434Z,13.43
2018-11-14T09:35:09.905Z,13.40
2018-11-14T09:37:38.292Z,12.87
2018-11-14T09:40:07.667Z,13.77
2018-11-14T09:42:36.061Z,12.53
2018-11-14T09:45:04.496Z,11.80
2018-11-14T09:47:32.635Z,12.63
2018-11-14T09:50:00.762Z,14.53
2018-11-14T09:52:28.889Z,13.47
2018-11-14T09:54:57.399Z,12.70
2018-11-14T09:57:25.550Z,15.13
2018-11-14T09:59:53.672Z,12.83
2018-11-14T10:02:21.861Z,13.10
2018-11-14T10:04:50.100Z,12.63
2018-11-14T10:07:18.288Z,13.80
2018-11-14T10:09:46.440Z,13.47
2018-11-14T10:12:14.574Z,13.50
2018-11-14T10:14:42.767Z,12.93
2018-11-14T10:17:10.983Z,13.53
2018-11-14T10:19:39.259Z,12.87
2018-11-14T10:22:07.452Z,12.30
2018-11-14T10:24:35.654Z,13.30
2018-11-14T10:27:03.853Z,12.67
2018-11-14T10:29:38.941Z,13.70
2018-11-14T10:32:07.082Z,11.67
2018-11-14T10:34:35.257Z,13.20
2018-11-14T10:37:03.369Z,11.67
2018-11-14T10:39:31.504Z,11.67
2018-11-14T10:41:59.695Z,11.97
2018-11-14T10:44:27.902Z,11.47
2018-11-14T10:46:56.076Z,11.77
2018-11-14T10:49:24.289Z,11.57
2018-11-14T10:54:27.014Z,12.27
2018-11-14T10:56:55.187Z,11.83
2018-11-14T10:59:23.358Z,13.33
2018-11-14T11:01:57.077Z,12.57
2018-11-14T11:04:30.540Z,12.67
2018-11-14T11:07:04.045Z,11.83
2018-11-14T11:10:41.079Z,12.43
2018-11-14T11:13:15.371Z,12.57
2018-11-14T11:15:49.298Z,12.67
2018-11-14T11:18:18.496Z,12.47
2018-11-14T11:20:46.854Z,12.80
2018-11-14T11:23:15.077Z,12.87
2018-11-14T11:25:43.619Z,12.80
2018-11-14T11:28:11.793Z,11.60
2018-11-14T11:30:40.121Z,11.60
2018-11-14T11:33:08.293Z,10.80
2018-11-14T11:35:36.741Z,11.33
2018-11-14T11:38:05.349Z,10.20
2018-11-14T11:40:33.912Z,10.50
2018-11-14T11:43:02.825Z,11.10
2018-11-14T11:45:31.208Z,10.00
2018-11-14T11:47:59.440Z,11.37
2018-11-14T11:50:27.861Z,10.13
2018-11-14T11:52:56.090Z,10.63
2018-11-14T11:55:24.263Z,11.07
2018-11-14T11:57:52.468Z,9.30
2018-11-14T12:00:21.618Z,10.33
2018-11-14T12:02:49.718Z,10.37
2018-11-14T12:05:17.970Z,10.33
2018-11-14T12:07:46.131Z,11.17
2018-11-14T12:10:15.180Z,10.10
2018-11-14T12:12:44.209Z,10.57
2018-11-14T12:15:13.253Z,9.77
2018-11-14T12:17:42.096Z,10.23
2018-11-14T12:20:12.083Z,10.37
2018-11-14T12:22:41.079Z,10.23
2018-11-14T12:25:10.954Z,10.17
2018-11-14T12:27:39.196Z,9.83
2018-11-14T12:30:11.291Z,9.77
2018-11-14T12:32:39.511Z,10.33
2018-11-14T12:35:08.905Z,10.53
2018-11-14T12:37:37.014Z,10.90
2018-11-14T12:40:05.776Z,9.47
2018-11-14T12:42:34.065Z,10.23
2018-11-14T12:45:02.266Z,11.07
2018-11-14T12:47:30.464Z,11.47
2018-11-14T12:49:58.669Z,10.50
2018-11-14T12:52:26.961Z,10.43
2018-11-14T12:55:01.858Z,10.20
2018-11-14T12:57:30.115Z,9.43
2018-11-14T12:59:58.291Z,9.97
2018-11-14T13:02:26.458Z,9.63
2018-11-14T13:04:54.645Z,10.33
2018-11-14T13:07:22.864Z,11.33
2018-11-14T13:09:51.097Z,10.37
2018-11-14T13:12:19.317Z,10.23
2018-11-14T13:14:47.496Z,9.37
2018-11-14T13:17:15.715Z,8.83
2018-11-14T13:19:43.868Z,8.90
2018-11-14T13:22:11.998Z,7.63
2018-11-14T13:24:40.180Z,8.40
2018-11-14T13:27:08.282Z,8.13
2018-11-14T13:29:36.440Z,7.60
2018-11-14T13:32:04.672Z,8.60
2018-11-14T13:34:32.846Z,8.30
2018-11-14T13:37:01.213Z,8.67
2018-11-14T13:39:29.382Z,9.77
2018-11-14T13:41:57.532Z,11.93
2018-11-14T13:44:25.664Z,11.17
2018-11-14T13:46:54.110Z,11.00
2018-11-14T13:49:22.370Z,11.13
2018-11-14T13:51:50.613Z,10.50
2018-11-14T13:54:18.779Z,10.93
2018-11-14T13:56:47.099Z,10.53
2018-11-14T13:59:15.274Z,10.40
2018-11-14T14:01:43.562Z,10.53
2018-11-14T14:04:11.821Z,9.93
2018-11-14T14:06:40.062Z,9.90
2018-11-14T14:09:10.092Z,10.20
2018-11-14T14:11:38.198Z,9.47
2018-11-14T14:14:13.793Z,9.70
2018-11-14T14:16:43.148Z,9.33
2018-11-14T14:19:11.343Z,10.17
2018-11-14T14:21:40.097Z,10.70
2018-11-14T14:24:08.525Z,11.27
2018-11-14T14:26:37.623Z,11.20
2018-11-14T14:29:06.052Z,13.03
2018-11-14T14:31:34.371Z,13.80
2018-11-14T14:34:02.558Z,14.17
2018-11-14T14:36:30.738Z,16.13
2018-11-14T14:38:58.951Z,15.27
2018-11-14T14:41:27.145Z,15.70
2018-11-14T14:43:55.425Z,15.07
2018-11-14T14:46:30.054Z,15.27
2018-11-14T14:48:58.195Z,15.20
2018-11-14T14:51:26.415Z,15.47
2018-11-14T15:04:12.336Z,18.07
2018-11-14T15:14:02.059Z,19.00
2018-11-14T15:16:30.384Z,16.93
2018-11-14T15:18:58.582Z,19.43
2018-11-14T15:21:26.796Z,19.00
2018-11-14T15:23:55.044Z,21.47
2018-11-14T15:26:23.240Z,18.90
2018-11-14T15:28:51.404Z,22.17
2018-11-14T15:31:19.602Z,19.30
2018-11-14T15:33:47.986Z,19.77
2018-11-14T15:36:16.146Z,18.20
2018-11-14T15:38:44.351Z,19.77
2018-11-14T15:41:12.500Z,21.27
2018-11-14T15:43:40.679Z,18.43
2018-11-14T15:46:08.808Z,20.83
2018-11-14T15:48:37.006Z,20.43
2018-11-14T15:51:05.576Z,19.23
2018-11-14T15:53:33.701Z,19.37
2018-11-14T15:56:01.863Z,21.20
2018-11-14T15:58:30.006Z,22.43
2018-11-14T16:00:58.186Z,21.80
2018-11-14T16:03:26.376Z,25.13
2018-11-14T16:05:54.543Z,22.67
2018-11-14T16:08:22.712Z,21.33
2018-11-14T16:10:50.870Z,18.87
2018-11-14T16:13:19.088Z,18.27
2018-11-14T16:15:47.320Z,19.83
2018-11-14T16:18:16.449Z,19.93
2018-11-14T16:20:44.644Z,19.47
2018-11-14T16:23:12.781Z,19.57
2018-11-14T16:25:40.923Z,19.63
2018-11-14T16:28:09.330Z,23.00
2018-11-14T16:30:38.165Z,19.43
2018-11-14T16:33:07.478Z,21.43
2018-11-14T16:35:35.682Z,20.07
2018-11-14T16:38:03.961Z,21.60
2018-11-14T16:40:33.472Z,22.10
2018-11-14T16:43:03.035Z,20.40
2018-11-14T16:45:31.174Z,20.63
2018-11-14T16:47:59.398Z,21.17
2018-11-14T16:50:27.537Z,21.93
2018-11-14T16:52:55.681Z,22.47
2018-11-14T16:55:24.337Z,24.00
2018-11-14T16:57:53.581Z,20.60
2018-11-14T17:00:29.537Z,20.87
2018-11-14T17:02:57.825Z,21.07
2018-11-14T17:05:26.900Z,24.10
2018-11-14T17:07:55.053Z,21.07
2018-11-14T17:10:23.548Z,23.77
2018-11-14T17:12:54.231Z,20.43
2018-11-14T17:15:23.503Z,20.00
2018-11-14T17:17:51.898Z,20.13
2018-11-14T17:20:20.894Z,20.60
2018-11-14T17:22:49.701Z,22.73
2018-11-14T17:25:18.606Z,21.73
2018-11-14T17:27:47.048Z,22.37
2018-11-14T17:30:16.675Z,22.07
2018-11-14T17:32:45.100Z,22.83
2018-11-14T17:35:14.182Z,22.90
2018-11-14T17:37:43.258Z,25.40
2018-11-14T17:40:14.822Z,25.40
2018-11-14T17:42:43.814Z,24.10
2018-11-14T17:45:14.141Z,23.93
2018-11-14T17:47:42.408Z,22.87
2018-11-14T17:50:13.157Z,24.93
2018-11-14T17:52:41.332Z,29.37
2018-11-14T17:55:11.165Z,23.77
2018-11-14T17:57:39.394Z,27.20
2018-11-14T18:00:09.972Z,25.33
2018-11-14T18:02:38.565Z,23.73
2018-11-14T18:05:08.588Z,23.47
2018-11-14T18:07:36.887Z,25.03
2018-11-14T18:10:05.789Z,25.40
2018-11-14T18:12:33.948Z,26.00
2018-11-14T18:15:02.176Z,27.17
2018-11-14T18:17:30.504Z,27.40
2018-11-14T18:19:58.707Z,29.20
2018-11-14T18:22:26.935Z,25.53
2018-11-14T18:24:55.093Z,24.50
2018-11-14T18:27:23.403Z,24.43
2018-11-14T18:29:51.994Z,24.17
2018-11-14T18:32:20.237Z,23.93
2018-11-14T18:34:48.420Z,23.53
2018-11-14T18:37:16.630Z,23.73
2018-11-14T18:39:45.019Z,24.10
2018-11-14T18:42:13.055Z,23.00
2018-11-14T18:44:41.346Z,24.23
2018-11-14T18:47:09.756Z,26.43
2018-11-14T18:49:38.032Z,23.47
2018-11-14T18:52:06.352Z,23.37
2018-11-14T18:54:34.708Z,23.10
2018-11-14T18:57:02.988Z,21.67
2018-11-14T18:59:31.554Z,23.80
2018-11-14T19:01:59.794Z,21.87
2018-11-14T19:04:31.862Z,24.27
2018-11-14T19:07:00.085Z,25.67
2018-11-14T19:09:28.338Z,23.67
2018-11-14T19:11:56.558Z,26.50
2018-11-14T19:14:24.851Z,25.90
2018-11-14T19:16:53.119Z,24.20
2018-11-14T19:19:21.416Z,24.67
2018-11-14T19:21:49.709Z,24.77
2018-11-14T19:24:18.062Z,27.10
2018-11-14T19:26:46.573Z,24.33
2018-11-14T19:29:14.782Z,22.27
2018-11-14T19:31:42.978Z,22.20
2018-11-14T19:34:11.254Z,25.03
2018-11-14T19:36:39.590Z,26.27
2018-11-14T19:39:09.951Z,32.13
2018-11-14T19:41:38.173Z,26.27
2018-11-14T19:44:06.638Z,24.27
2018-11-14T19:46:34.989Z,34.17
2018-11-14T19:49:03.303Z,24.23
2018-11-14T19:51:31.708Z,23.87
2018-11-14T19:54:00.151Z,24.43
2018-11-14T19:56:28.454Z,25.83
2018-11-14T19:58:56.746Z,25.33
2018-11-14T20:01:24.973Z,26.27
2018-11-14T20:03:53.269Z,25.27
2018-11-14T20:06:21.490Z,25.47
2018-11-14T20:08:49.732Z,24.30
2018-11-14T20:11:17.984Z,25.57
2018-11-14T20:13:46.307Z,26.97
2018-11-14T20:16:14.571Z,23.23
2018-11-14T20:18:42.872Z,23.97
2018-11-14T20:21:11.186Z,26.10
2018-11-14T20:23:39.587Z,23.47
2018-11-14T20:26:07.885Z,24.67
2018-11-14T20:28:36.148Z,22.13
2018-11-14T20:31:04.525Z,23.47
2018-11-14T20:33:32.761Z,23.77
2018-11-14T20:36:01.076Z,23.13
2018-11-14T20:38:29.410Z,22.83
2018-11-14T20:40:57.923Z,22.30
2018-11-14T20:43:26.759Z,48.00
2018-11-14T20:45:55.006Z,23.70
2018-11-14T20:48:23.287Z,23.63
2018-11-14T20:50:51.575Z,23.37
2018-11-14T20:53:19.865Z,24.90
2018-11-14T20:55:48.227Z,24.43
2018-11-14T20:58:16.529Z,25.60
2018-11-14T21:00:44.884Z,25.63
2018-11-14T21:03:14.466Z,27.07
2018-11-14T21:05:42.857Z,24.00
2018-11-14T21:08:11.151Z,24.53
2018-11-14T21:10:40.118Z,23.50
2018-11-14T21:13:08.604Z,26.53
2018-11-14T21:15:39.171Z,24.07
2018-11-14T21:18:07.637Z,20.47
2018-11-14T21:20:36.035Z,21.27
2018-11-14T21:23:04.848Z,22.77
2018-11-14T21:25:33.063Z,24.43
2018-11-14T21:28:01.345Z,22.90
2018-11-14T21:30:30.374Z,23.83
2018-11-14T21:32:58.723Z,21.37
2018-11-14T21:35:29.731Z,21.77
2018-11-14T21:38:00.109Z,20.33
2018-11-14T21:40:28.540Z,19.93
2018-11-14T21:42:56.801Z,20.43
2018-11-14T21:45:26.459Z,25.67
2018-11-14T21:47:59.895Z,21.97
2018-11-14T21:50:28.887Z,24.43
2018-11-14T21:52:57.137Z,22.83
2018-11-14T21:55:26.210Z,23.57
2018-11-14T21:57:54.401Z,21.57
2018-11-14T22:00:29.659Z,20.07
2018-11-14T22:02:57.917Z,22.47
2018-11-14T22:05:26.102Z,22.30
2018-11-14T22:07:54.291Z,19.07
2018-11-14T22:10:23.530Z,17.73
2018-11-14T22:12:52.137Z,20.27
2018-11-14T22:15:21.645Z,19.50
2018-11-14T22:17:50.106Z,19.47
2018-11-14T22:20:19.426Z,19.40
2018-11-14T22:22:47.988Z,18.53
2018-11-14T22:25:17.494Z,18.00
2018-11-14T22:27:45.727Z,18.63
2018-11-14T22:30:16.341Z,18.70
2018-11-14T22:32:44.567Z,20.20
2018-11-14T22:35:14.288Z,17.50
2018-11-14T22:37:42.616Z,19.90
2018-11-14T22:40:13.627Z,23.87
2018-11-14T22:42:41.969Z,24.23
2018-11-14T22:45:12.135Z,26.10
2018-11-14T22:47:41.058Z,26.17
2018-11-14T22:50:10.552Z,24.50
2018-11-14T22:52:39.338Z,24.03
2018-11-14T22:55:08.342Z,22.97
2018-11-14T22:57:36.480Z,23.10
2018-11-14T23:00:08.812Z,23.00
2018-11-14T23:02:37.340Z,21.70
2018-11-14T23:05:05.599Z,22.37
2018-11-14T23:07:33.725Z,20.93
2018-11-14T23:10:01.971Z,22.17
2018-11-14T23:12:30.080Z,21.50
2018-11-14T23:14:58.211Z,23.63
2018-11-14T23:17:26.427Z,21.47
2018-11-14T23:19:54.563Z,22.20
2018-11-14T23:22:22.694Z,22.23
2018-11-14T23:24:50.842Z,22.07
2018-11-14T23:27:18.937Z,21.43
2018-11-14T23:29:47.054Z,21.87
2018-11-14T23:32:15.263Z,20.77
2018-11-14T23:34:48.821Z,20.27
2018-11-14T23:37:17.078Z,19.40
2018-11-14T23:39:45.208Z,19.10
2018-11-14T23:42:13.330Z,19.47
2018-11-14T23:44:41.559Z,18.37
2018-11-14T23:47:09.670Z,17.37
2018-11-14T23:49:37.781Z,17.90
2018-11-14T23:52:05.934Z,17.80
2018-11-14T23:54:34.124Z,16.60
2018-11-14T23:57:02.378Z,16.37
2018-11-14T23:59:30.560Z,15.50
